createdAt,value
2018-11-25T00:00:01.803Z,0.00
2018-11-25T00:01:01.964Z,0.00
2018-11-25T00:02:02.139Z,0.00
2018-11-25T00:03:02.337Z,0.00
2018-11-25T00:04:02.530Z,0.00
2018-11-25T00:05:02.661Z,0.00
2018-11-25T00:06:02.832Z,0.00
2018-11-25T00:07:03.003Z,0.00
2018-11-25T00:08:03.179Z,0.00
2018-11-25T00:09:03.379Z,0.00
2018-11-25T00:10:03.604Z,0.00
2018-11-25T00:11:03.735Z,0.00
2018-11-25T00:12:03.907Z,0.00
2018-11-25T00:13:04.072Z,0.00
2018-11-25T00:14:04.247Z,0.00
2018-11-25T00:15:04.415Z,0.00
2018-11-25T00:16:04.592Z,0.00
2018-11-25T00:17:04.754Z,0.00
2018-11-25T00:18:04.933Z,0.00
2018-11-25T00:19:05.130Z,0.00
2018-11-25T00:20:05.272Z,0.00
2018-11-25T00:21:05.356Z,0.00
2018-11-25T00:22:05.582Z,0.00
2018-11-25T00:23:05.681Z,0.00
2018-11-25T00:24:05.854Z,0.00
2018-11-25T00:25:06.040Z,0.00
2018-11-25T00:26:06.189Z,0.00
2018-11-25T00:27:06.392Z,0.00
2018-11-25T00:28:06.516Z,0.00
2018-11-25T00:29:06.700Z,0.00
2018-11-25T00:30:06.877Z,0.00
2018-11-25T00:31:09.590Z,0.00
2018-11-25T00:32:07.261Z,0.00
2018-11-25T00:33:07.438Z,0.00
2018-11-25T00:34:07.592Z,0.00
2018-11-25T00:35:07.781Z,0.00
2018-11-25T00:36:07.965Z,0.00
2018-11-25T00:37:08.104Z,0.00
2018-11-25T00:38:08.272Z,0.00
2018-11-25T00:39:08.463Z,0.00
2018-11-25T00:40:08.599Z,0.00
2018-11-25T00:41:08.764Z,0.00
2018-11-25T00:42:08.929Z,0.00
2018-11-25T00:43:09.108Z,0.00
2018-11-25T00:44:09.284Z,0.00
2018-11-25T00:45:09.462Z,0.00
2018-11-25T00:46:09.622Z,0.00
2018-11-25T00:47:09.793Z,0.00
2018-11-25T00:48:09.959Z,0.00
2018-11-25T00:49:10.157Z,0.00
2018-11-25T00:50:10.283Z,0.00
2018-11-25T00:51:10.404Z,0.00
2018-11-25T00:52:10.566Z,0.00
2018-11-25T00:53:10.728Z,0.00
2018-11-25T00:54:10.896Z,0.00
2018-11-25T00:55:11.093Z,0.00
2018-11-25T00:56:11.247Z,0.00
2018-11-25T00:57:11.414Z,0.00
2018-11-25T00:58:11.608Z,0.00
2018-11-25T00:59:11.782Z,0.00
2018-11-25T01:00:11.862Z,0.00
2018-11-25T01:01:12.030Z,0.00
2018-11-25T01:02:12.214Z,0.00
2018-11-25T01:03:12.378Z,0.00
2018-11-25T01:04:12.565Z,0.00
2018-11-25T01:05:12.741Z,0.00
2018-11-25T01:06:12.905Z,0.00
2018-11-25T01:07:13.081Z,0.00
2018-11-25T01:08:13.265Z,0.00
2018-11-25T01:09:13.438Z,0.00
2018-11-25T01:10:13.626Z,0.00
2018-11-25T01:11:13.851Z,0.00
2018-11-25T01:12:13.995Z,0.00
2018-11-25T01:13:14.186Z,0.00
2018-11-25T01:14:14.354Z,0.00
2018-11-25T01:15:14.522Z,0.00
2018-11-25T01:16:14.716Z,0.00
2018-11-25T01:17:14.842Z,0.00
2018-11-25T01:18:15.113Z,0.00
2018-11-25T01:19:15.169Z,0.00
2018-11-25T01:20:15.360Z,0.00
2018-11-25T01:21:15.540Z,0.00
2018-11-25T01:22:15.648Z,0.00
2018-11-25T01:23:15.840Z,0.00
2018-11-25T01:24:15.993Z,0.00
2018-11-25T01:25:16.157Z,0.00
2018-11-25T01:26:16.320Z,0.00
2018-11-25T01:27:16.500Z,0.00
2018-11-25T01:28:16.664Z,0.00
2018-11-25T01:29:16.829Z,0.00
2018-11-25T01:30:17.054Z,0.00
2018-11-25T01:31:17.172Z,0.00
2018-11-25T01:32:17.337Z,0.00
2018-11-25T01:33:17.510Z,0.00
2018-11-25T01:34:17.689Z,0.00
2018-11-25T01:35:17.859Z,0.00
2018-11-25T01:36:18.033Z,0.00
2018-11-25T01:37:18.247Z,0.00
2018-11-25T01:38:18.358Z,0.00
2018-11-25T01:39:18.519Z,0.00
2018-11-25T01:40:18.682Z,0.00
2018-11-25T01:41:18.847Z,0.00
2018-11-25T01:42:20.393Z,0.00
2018-11-25T01:43:19.208Z,0.00
2018-11-25T01:44:19.325Z,0.00
2018-11-25T01:45:19.481Z,0.00
2018-11-25T01:46:19.647Z,0.00
2018-11-25T01:47:19.826Z,0.00
2018-11-25T01:48:19.958Z,0.00
2018-11-25T01:49:20.150Z,0.00
2018-11-25T01:50:20.261Z,0.00
2018-11-25T01:51:20.443Z,0.00
2018-11-25T01:52:20.583Z,0.00
2018-11-25T01:53:20.757Z,0.00
2018-11-25T01:54:20.913Z,0.00
2018-11-25T01:55:21.088Z,0.00
2018-11-25T01:56:21.264Z,0.00
2018-11-25T01:57:21.435Z,0.00
2018-11-25T01:58:21.607Z,0.00
2018-11-25T01:59:21.767Z,0.00
2018-11-25T02:00:23.754Z,0.00
2018-11-25T02:01:22.157Z,0.00
2018-11-25T02:02:22.333Z,0.00
2018-11-25T02:03:22.548Z,0.00
2018-11-25T02:04:22.664Z,0.00
2018-11-25T02:05:22.841Z,0.00
2018-11-25T02:06:23.151Z,0.00
2018-11-25T02:07:23.232Z,0.00
2018-11-25T02:08:23.400Z,0.00
2018-11-25T02:09:23.574Z,0.00
2018-11-25T02:10:23.745Z,0.00
2018-11-25T02:11:23.907Z,0.00
2018-11-25T02:12:24.076Z,0.00
2018-11-25T02:13:24.244Z,0.00
2018-11-25T02:14:24.440Z,0.00
2018-11-25T02:15:24.598Z,0.00
2018-11-25T02:16:24.778Z,0.00
2018-11-25T02:17:24.953Z,0.00
2018-11-25T02:18:25.151Z,0.00
2018-11-25T02:19:25.289Z,0.00
2018-11-25T02:20:25.467Z,0.00
2018-11-25T02:21:25.702Z,0.00
2018-11-25T02:22:25.797Z,0.00
2018-11-25T02:23:26.144Z,0.00
2018-11-25T02:24:26.105Z,0.00
2018-11-25T02:25:26.637Z,0.00
2018-11-25T02:26:26.434Z,0.00
2018-11-25T02:27:26.620Z,0.00
2018-11-25T02:28:26.756Z,0.00
2018-11-25T02:29:26.952Z,0.00
2018-11-25T02:30:27.092Z,0.00
2018-11-25T02:31:27.275Z,0.00
2018-11-25T02:32:27.453Z,0.00
2018-11-25T02:33:27.611Z,0.00
2018-11-25T02:34:27.813Z,0.00
2018-11-25T02:35:27.969Z,0.00
2018-11-25T02:36:28.054Z,0.00
2018-11-25T02:37:28.220Z,0.00
2018-11-25T02:38:28.393Z,0.00
2018-11-25T02:39:28.563Z,0.00
2018-11-25T02:40:28.733Z,0.00
2018-11-25T02:41:30.579Z,0.00
2018-11-25T02:42:29.102Z,0.00
2018-11-25T02:43:29.274Z,0.00
2018-11-25T02:44:29.443Z,0.00
2018-11-25T02:45:29.609Z,0.00
2018-11-25T02:46:29.783Z,0.00
2018-11-25T02:47:29.944Z,0.00
2018-11-25T02:48:30.122Z,0.00
2018-11-25T02:49:30.287Z,0.00
2018-11-25T02:50:30.451Z,0.00
2018-11-25T02:51:30.823Z,0.00
2018-11-25T02:52:30.820Z,0.00
2018-11-25T02:53:30.983Z,0.00
2018-11-25T02:54:31.162Z,0.00
2018-11-25T02:55:31.291Z,0.00
2018-11-25T02:56:31.457Z,0.00
2018-11-25T02:57:31.625Z,0.00
2018-11-25T02:58:31.791Z,0.00
2018-11-25T02:59:31.959Z,0.00
2018-11-25T03:00:32.131Z,0.00
2018-11-25T03:01:32.410Z,0.00
2018-11-25T03:02:32.503Z,0.00
2018-11-25T03:03:32.653Z,0.00
2018-11-25T03:04:32.852Z,0.00
2018-11-25T03:05:33.066Z,0.00
2018-11-25T03:06:33.116Z,0.00
2018-11-25T03:07:33.285Z,0.00
2018-11-25T03:08:33.449Z,0.00
2018-11-25T03:09:33.627Z,0.00
2018-11-25T03:10:33.829Z,0.00
2018-11-25T03:11:34.009Z,0.00
2018-11-25T03:12:34.182Z,0.00
2018-11-25T03:13:34.348Z,0.00
2018-11-25T03:14:34.526Z,0.00
2018-11-25T03:15:34.692Z,0.00
2018-11-25T03:16:34.903Z,0.00
2018-11-25T03:17:39.592Z,0.00
2018-11-25T03:18:35.142Z,0.00
2018-11-25T03:19:35.311Z,0.00
2018-11-25T03:20:35.507Z,0.00
2018-11-25T03:21:35.646Z,0.00
2018-11-25T03:22:35.818Z,0.00
2018-11-25T03:23:35.991Z,0.00
2018-11-25T03:24:36.157Z,0.00
2018-11-25T03:25:36.340Z,0.00
2018-11-25T03:26:36.493Z,0.00
2018-11-25T03:27:36.650Z,0.00
2018-11-25T03:28:36.818Z,0.00
2018-11-25T03:29:36.988Z,0.00
2018-11-25T03:30:37.202Z,0.00
2018-11-25T03:31:37.342Z,0.00
2018-11-25T03:32:37.559Z,0.00
2018-11-25T03:33:37.750Z,0.00
2018-11-25T03:34:37.859Z,0.00
2018-11-25T03:35:38.027Z,0.00
2018-11-25T03:36:38.189Z,0.00
2018-11-25T03:37:38.356Z,0.00
2018-11-25T03:38:38.521Z,0.00
2018-11-25T03:39:38.689Z,0.00
2018-11-25T03:40:38.907Z,0.00
2018-11-25T03:41:39.088Z,0.00
2018-11-25T03:42:39.212Z,0.00
2018-11-25T03:43:39.388Z,0.00
2018-11-25T03:44:39.766Z,0.00
2018-11-25T03:45:39.729Z,0.00
2018-11-25T03:46:39.879Z,0.00
2018-11-25T03:47:40.043Z,0.00
2018-11-25T03:48:40.223Z,0.00
2018-11-25T03:49:40.394Z,0.00
2018-11-25T03:50:40.563Z,0.00
2018-11-25T03:51:40.746Z,0.00
2018-11-25T03:52:40.953Z,0.00
2018-11-25T03:53:41.066Z,0.00
2018-11-25T03:54:41.236Z,0.00
2018-11-25T03:55:41.415Z,0.00
2018-11-25T03:56:41.621Z,0.00
2018-11-25T03:57:41.809Z,0.00
2018-11-25T03:58:41.905Z,0.00
2018-11-25T03:59:42.072Z,0.00
2018-11-25T04:00:42.258Z,0.00
2018-11-25T04:01:42.450Z,0.00
2018-11-25T04:02:42.627Z,0.00
2018-11-25T04:03:42.791Z,0.00
2018-11-25T04:04:42.959Z,0.00
2018-11-25T04:05:43.125Z,0.00
2018-11-25T04:06:43.305Z,0.00
2018-11-25T04:07:43.471Z,0.00
2018-11-25T04:08:43.634Z,0.00
2018-11-25T04:09:43.797Z,0.00
2018-11-25T04:10:43.965Z,0.00
2018-11-25T04:11:44.139Z,0.00
2018-11-25T04:12:44.320Z,0.00
2018-11-25T04:13:44.510Z,0.00
2018-11-25T04:14:44.700Z,0.00
2018-11-25T04:15:44.822Z,0.00
2018-11-25T04:16:44.995Z,0.00
2018-11-25T04:17:45.166Z,0.00
2018-11-25T04:18:45.347Z,0.00
2018-11-25T04:19:45.515Z,0.00
2018-11-25T04:20:45.704Z,0.00
2018-11-25T04:21:45.837Z,0.00
2018-11-25T04:22:46.008Z,0.00
2018-11-25T04:23:46.201Z,0.00
2018-11-25T04:24:46.369Z,0.00
2018-11-25T04:25:46.556Z,0.00
2018-11-25T04:26:46.729Z,0.00
2018-11-25T04:27:46.891Z,0.00
2018-11-25T04:28:47.078Z,0.00
2018-11-25T04:29:47.284Z,0.00
2018-11-25T04:30:47.499Z,0.00
2018-11-25T04:31:47.652Z,0.00
2018-11-25T04:32:47.891Z,0.00
2018-11-25T04:33:47.963Z,0.00
2018-11-25T04:34:48.214Z,0.00
2018-11-25T04:35:48.257Z,0.00
2018-11-25T04:36:48.431Z,0.00
2018-11-25T04:37:48.609Z,0.00
2018-11-25T04:38:48.779Z,0.00
2018-11-25T04:39:48.944Z,0.00
2018-11-25T04:40:49.077Z,0.00
2018-11-25T04:41:49.244Z,0.00
2018-11-25T04:42:49.419Z,0.00
2018-11-25T04:43:49.576Z,0.00
2018-11-25T04:44:49.749Z,0.00
2018-11-25T04:45:49.925Z,0.00
2018-11-25T04:46:50.112Z,0.00
2018-11-25T04:47:50.279Z,0.00
2018-11-25T04:48:50.440Z,0.00
2018-11-25T04:49:50.668Z,0.00
2018-11-25T04:50:50.809Z,0.00
2018-11-25T04:51:50.992Z,0.00
2018-11-25T04:52:51.134Z,0.00
2018-11-25T04:53:51.306Z,0.00
2018-11-25T04:54:51.498Z,0.00
2018-11-25T04:55:51.653Z,0.00
2018-11-25T04:56:51.812Z,0.00
2018-11-25T04:57:52.015Z,0.00
2018-11-25T04:58:52.168Z,0.00
2018-11-25T04:59:52.343Z,0.00
2018-11-25T05:00:52.516Z,0.00
2018-11-25T05:01:56.154Z,0.00
2018-11-25T05:02:52.784Z,0.00
2018-11-25T05:03:52.972Z,0.00
2018-11-25T05:04:53.144Z,0.00
2018-11-25T05:05:53.285Z,0.00
2018-11-25T05:06:53.468Z,0.00
2018-11-25T05:07:53.633Z,0.00
2018-11-25T05:08:53.821Z,0.00
2018-11-25T05:09:53.961Z,0.00
2018-11-25T05:10:56.337Z,0.00
2018-11-25T05:11:55.691Z,0.00
2018-11-25T05:12:54.497Z,0.00
2018-11-25T05:13:54.685Z,0.00
2018-11-25T05:14:54.860Z,0.00
2018-11-25T05:15:55.031Z,0.00
2018-11-25T05:16:55.257Z,0.00
2018-11-25T05:17:55.390Z,0.00
2018-11-25T05:18:55.558Z,0.00
2018-11-25T05:19:55.731Z,0.00
2018-11-25T05:20:55.885Z,0.00
2018-11-25T05:21:56.054Z,0.00
2018-11-25T05:22:56.276Z,0.00
2018-11-25T05:23:56.483Z,0.00
2018-11-25T05:24:56.571Z,0.00
2018-11-25T05:25:56.757Z,0.00
2018-11-25T05:26:57.022Z,0.00
2018-11-25T05:27:57.061Z,0.00
2018-11-25T05:28:57.280Z,0.00
2018-11-25T05:29:57.319Z,0.00
2018-11-25T05:30:57.492Z,0.00
2018-11-25T05:31:57.665Z,0.00
2018-11-25T05:32:57.876Z,0.00
2018-11-25T05:33:58.046Z,0.00
2018-11-25T05:34:58.248Z,0.00
2018-11-25T05:35:58.403Z,0.00
2018-11-25T05:36:58.609Z,0.00
2018-11-25T05:37:58.723Z,0.00
2018-11-25T05:38:58.888Z,0.00
2018-11-25T05:39:59.079Z,0.00
2018-11-25T05:40:59.241Z,0.00
2018-11-25T05:41:59.433Z,0.00
2018-11-25T05:42:59.646Z,0.00
2018-11-25T05:43:59.981Z,0.00
2018-11-25T05:44:59.828Z,0.00
2018-11-25T05:46:00.198Z,0.00
2018-11-25T05:47:00.130Z,0.00
2018-11-25T05:48:00.343Z,0.00
2018-11-25T05:49:00.464Z,0.00
2018-11-25T05:50:00.630Z,0.00
2018-11-25T05:51:00.808Z,0.00
2018-11-25T05:52:02.642Z,0.00
2018-11-25T05:53:01.149Z,0.00
2018-11-25T05:54:02.271Z,0.00
2018-11-25T05:55:01.451Z,0.00
2018-11-25T05:56:01.618Z,0.00
2018-11-25T05:57:01.792Z,0.00
2018-11-25T05:58:02.040Z,0.00
2018-11-25T05:59:02.104Z,0.00
2018-11-25T06:00:02.312Z,0.00
2018-11-25T06:01:02.466Z,0.00
2018-11-25T06:02:03.852Z,0.00
2018-11-25T06:03:03.305Z,0.00
2018-11-25T06:04:03.463Z,0.00
2018-11-25T06:05:05.918Z,0.00
2018-11-25T06:06:03.984Z,0.00
2018-11-25T06:07:03.867Z,0.00
2018-11-25T06:08:03.775Z,0.00
2018-11-25T06:09:04.189Z,0.00
2018-11-25T06:10:03.737Z,0.00
2018-11-25T06:11:05.362Z,0.00
2018-11-25T06:12:05.439Z,0.00
2018-11-25T06:13:07.583Z,0.00
2018-11-25T06:14:06.243Z,0.00
2018-11-25T06:15:07.096Z,0.00
2018-11-25T06:16:05.954Z,0.00
2018-11-25T06:17:05.829Z,0.00
2018-11-25T06:18:08.556Z,0.00
2018-11-25T06:19:06.007Z,0.00
2018-11-25T06:20:06.878Z,0.00
2018-11-25T06:21:09.568Z,0.00
2018-11-25T06:22:06.613Z,0.00
2018-11-25T06:23:07.790Z,0.00
2018-11-25T06:24:07.336Z,0.00
2018-11-25T06:25:07.271Z,0.00
2018-11-25T06:26:07.419Z,0.00
2018-11-25T06:27:06.205Z,0.00
2018-11-25T06:28:06.801Z,0.00
2018-11-25T06:29:07.857Z,0.00
2018-11-25T06:30:08.327Z,0.00
2018-11-25T06:31:09.389Z,0.00
2018-11-25T06:32:07.823Z,0.00
2018-11-25T06:33:08.727Z,0.00
2018-11-25T06:34:08.126Z,0.00
2018-11-25T06:35:08.575Z,0.00
2018-11-25T06:36:08.557Z,0.00
2018-11-25T06:37:09.642Z,0.00
2018-11-25T06:38:08.862Z,0.00
2018-11-25T06:39:11.906Z,0.00
2018-11-25T06:40:10.439Z,0.00
2018-11-25T06:41:10.318Z,0.00
2018-11-25T06:42:11.330Z,0.00
2018-11-25T06:43:11.591Z,0.00
2018-11-25T06:44:11.164Z,0.00
2018-11-25T06:45:11.996Z,0.00
2018-11-25T06:46:11.376Z,0.00
2018-11-25T06:47:10.617Z,0.00
2018-11-25T06:48:10.706Z,0.00
2018-11-25T06:49:13.001Z,0.00
2018-11-25T06:50:13.092Z,0.00
2018-11-25T06:51:10.640Z,0.00
2018-11-25T06:52:11.715Z,0.00
2018-11-25T06:53:11.563Z,0.00
2018-11-25T06:54:13.801Z,0.00
2018-11-25T06:55:12.988Z,0.00
2018-11-25T06:56:12.266Z,0.00
2018-11-25T06:57:14.960Z,0.00
2018-11-25T06:58:12.330Z,0.00
2018-11-25T06:59:12.431Z,0.00
2018-11-25T07:00:12.100Z,0.00
2018-11-25T07:01:14.504Z,0.00
2018-11-25T07:02:14.662Z,0.00
2018-11-25T07:03:13.450Z,0.00
2018-11-25T07:04:12.327Z,0.00
2018-11-25T07:05:13.668Z,0.00
2018-11-25T07:06:13.377Z,0.00
2018-11-25T07:07:13.554Z,0.00
2018-11-25T07:08:13.574Z,0.00
2018-11-25T07:09:12.804Z,0.00
2018-11-25T07:10:13.782Z,0.00
2018-11-25T07:11:15.463Z,0.00
2018-11-25T07:12:13.168Z,0.00
2018-11-25T07:13:13.323Z,0.00
2018-11-25T07:14:13.495Z,0.00
2018-11-25T07:15:13.807Z,0.00
2018-11-25T07:16:13.911Z,0.00
2018-11-25T07:17:14.087Z,0.00
2018-11-25T07:18:14.292Z,0.00
2018-11-25T07:19:14.432Z,0.00
2018-11-25T07:20:14.621Z,0.00
2018-11-25T07:21:14.806Z,0.00
2018-11-25T07:22:14.975Z,0.00
2018-11-25T07:23:15.174Z,0.00
2018-11-25T07:24:15.278Z,0.00
2018-11-25T07:25:15.459Z,0.00
2018-11-25T07:26:15.666Z,0.00
2018-11-25T07:27:15.906Z,0.00
2018-11-25T07:28:18.330Z,0.00
2018-11-25T07:29:16.137Z,0.00
2018-11-25T07:30:16.372Z,0.00
2018-11-25T07:31:16.563Z,0.00
2018-11-25T07:32:16.682Z,0.00
2018-11-25T07:33:16.930Z,0.00
2018-11-25T07:34:16.964Z,0.00
2018-11-25T07:35:17.135Z,5.63
2018-11-25T07:36:17.380Z,5.63
2018-11-25T07:37:17.523Z,5.63
2018-11-25T07:38:17.705Z,5.63
2018-11-25T07:39:17.908Z,5.63
2018-11-25T07:40:18.065Z,5.63
2018-11-25T07:41:18.237Z,5.63
2018-11-25T07:42:18.467Z,5.63
2018-11-25T07:43:18.635Z,5.63
2018-11-25T07:44:18.809Z,5.63
2018-11-25T07:45:18.977Z,11.25
2018-11-25T07:46:19.148Z,11.25
2018-11-25T07:47:19.320Z,11.25
2018-11-25T07:48:19.518Z,11.25
2018-11-25T07:49:19.728Z,11.25
2018-11-25T07:50:20.160Z,11.25
2018-11-25T07:51:21.135Z,11.25
2018-11-25T07:52:20.330Z,11.25
2018-11-25T07:53:20.364Z,11.25
2018-11-25T07:54:21.190Z,16.88
2018-11-25T07:55:20.672Z,16.88
2018-11-25T07:56:20.864Z,16.88
2018-11-25T07:57:21.019Z,16.88
2018-11-25T07:58:21.204Z,16.88
2018-11-25T07:59:21.405Z,16.88
2018-11-25T08:00:21.545Z,22.50
2018-11-25T08:01:22.915Z,22.50
2018-11-25T08:02:21.878Z,22.50
2018-11-25T08:03:22.053Z,16.88
2018-11-25T08:04:22.367Z,16.88
2018-11-25T08:05:22.395Z,16.88
2018-11-25T08:06:23.444Z,11.25
2018-11-25T08:07:23.132Z,11.25
2018-11-25T08:08:22.877Z,11.25
2018-11-25T08:09:23.036Z,11.25
2018-11-25T08:10:23.934Z,11.25
2018-11-25T08:11:23.665Z,11.25
2018-11-25T08:12:23.529Z,11.25
2018-11-25T08:13:23.706Z,11.25
2018-11-25T08:14:23.895Z,11.25
2018-11-25T08:15:24.064Z,16.88
2018-11-25T08:16:24.338Z,16.88
2018-11-25T08:17:24.400Z,22.50
2018-11-25T08:18:24.500Z,22.50
2018-11-25T08:19:24.692Z,22.50
2018-11-25T08:20:24.906Z,22.50
2018-11-25T08:21:25.076Z,22.50
2018-11-25T08:22:25.246Z,22.50
2018-11-25T08:23:25.433Z,22.50
2018-11-25T08:24:25.714Z,22.50
2018-11-25T08:25:25.755Z,22.50
2018-11-25T08:26:25.931Z,22.50
2018-11-25T08:27:26.098Z,22.50
2018-11-25T08:28:30.144Z,22.50
2018-11-25T08:29:26.474Z,28.13
2018-11-25T08:30:28.269Z,28.13
2018-11-25T08:31:28.407Z,28.13
2018-11-25T08:32:27.589Z,28.13
2018-11-25T08:33:27.885Z,28.13
2018-11-25T08:34:29.162Z,33.75
2018-11-25T08:35:29.152Z,33.75
2018-11-25T08:36:27.892Z,39.38
2018-11-25T08:37:29.915Z,33.75
2018-11-25T08:38:28.587Z,39.38
2018-11-25T08:39:29.095Z,39.38
2018-11-25T08:40:31.395Z,39.38
2018-11-25T08:41:31.202Z,39.38
2018-11-25T08:42:30.019Z,45.00
2018-11-25T08:43:29.404Z,39.38
2018-11-25T08:44:30.584Z,39.38
2018-11-25T08:45:31.053Z,39.38
2018-11-25T08:46:30.508Z,39.38
2018-11-25T08:47:29.863Z,39.38
2018-11-25T08:48:30.584Z,33.75
2018-11-25T08:49:30.424Z,33.75
2018-11-25T08:50:31.679Z,33.75
2018-11-25T08:51:32.008Z,33.75
2018-11-25T08:52:31.759Z,28.13
2018-11-25T08:53:31.720Z,28.13
2018-11-25T08:54:30.745Z,22.50
2018-11-25T08:55:31.059Z,16.88
2018-11-25T08:56:31.423Z,16.88
2018-11-25T08:57:31.163Z,16.88
2018-11-25T08:58:32.005Z,16.88
2018-11-25T08:59:32.096Z,11.25
2018-11-25T09:00:32.466Z,11.25
2018-11-25T09:01:34.047Z,11.25
2018-11-25T09:02:31.986Z,11.25
2018-11-25T09:03:32.623Z,11.25
2018-11-25T09:04:33.142Z,11.25
2018-11-25T09:05:32.986Z,11.25
2018-11-25T09:06:33.677Z,11.25
2018-11-25T09:07:34.125Z,16.88
2018-11-25T09:08:34.102Z,16.88
2018-11-25T09:09:34.153Z,16.88
2018-11-25T09:10:34.405Z,16.88
2018-11-25T09:11:34.488Z,16.88
2018-11-25T09:12:33.702Z,16.88
2018-11-25T09:13:33.871Z,16.88
2018-11-25T09:14:34.645Z,16.88
2018-11-25T09:15:37.376Z,16.88
2018-11-25T09:16:34.542Z,16.88
2018-11-25T09:17:36.202Z,16.88
2018-11-25T09:18:35.736Z,22.50
2018-11-25T09:19:36.185Z,22.50
2018-11-25T09:20:36.053Z,22.50
2018-11-25T09:21:38.065Z,22.50
2018-11-25T09:22:36.853Z,28.13
2018-11-25T09:23:36.171Z,28.13
2018-11-25T09:24:37.531Z,28.13
2018-11-25T09:25:37.803Z,22.50
2018-11-25T09:26:36.155Z,22.50
2018-11-25T09:27:36.298Z,22.50
2018-11-25T09:28:37.090Z,22.50
2018-11-25T09:29:37.061Z,22.50
2018-11-25T09:30:37.310Z,22.50
2018-11-25T09:31:37.747Z,22.50
2018-11-25T09:32:37.580Z,22.50
2018-11-25T09:33:38.492Z,16.88
2018-11-25T09:34:37.873Z,16.88
2018-11-25T09:35:39.147Z,16.88
2018-11-25T09:36:39.166Z,16.88
2018-11-25T09:37:38.689Z,16.88
2018-11-25T09:38:39.132Z,22.50
2018-11-25T09:39:39.682Z,22.50
2018-11-25T09:40:39.297Z,22.50
2018-11-25T09:41:38.823Z,22.50
2018-11-25T09:42:38.535Z,28.13
2018-11-25T09:43:38.983Z,28.13
2018-11-25T09:44:41.542Z,33.75
2018-11-25T09:45:40.287Z,33.75
2018-11-25T09:46:42.647Z,39.38
2018-11-25T09:47:39.312Z,39.38
2018-11-25T09:48:40.299Z,33.75
2018-11-25T09:49:40.541Z,33.75
2018-11-25T09:50:40.289Z,33.75
2018-11-25T09:51:40.612Z,33.75
2018-11-25T09:52:40.902Z,33.75
2018-11-25T09:53:40.473Z,33.75
2018-11-25T09:54:40.591Z,33.75
2018-11-25T09:55:41.619Z,33.75
2018-11-25T09:56:40.928Z,33.75
2018-11-25T09:57:40.957Z,28.13
2018-11-25T09:58:41.273Z,28.13
2018-11-25T09:59:41.317Z,28.13
2018-11-25T10:00:41.794Z,28.13
2018-11-25T10:01:41.836Z,28.13
2018-11-25T10:02:41.791Z,28.13
2018-11-25T10:03:41.968Z,28.13
2018-11-25T10:04:42.154Z,28.13
2018-11-25T10:05:42.392Z,28.13
2018-11-25T10:06:42.496Z,33.75
2018-11-25T10:07:42.696Z,33.75
2018-11-25T10:08:42.861Z,33.75
2018-11-25T10:09:43.045Z,33.75
2018-11-25T10:10:43.202Z,39.38
2018-11-25T10:11:43.411Z,39.38
2018-11-25T10:12:43.549Z,45.00
2018-11-25T10:13:44.852Z,50.63
2018-11-25T10:14:45.355Z,56.25
2018-11-25T10:15:44.031Z,73.13
2018-11-25T10:16:45.646Z,78.75
2018-11-25T10:17:46.535Z,95.63
2018-11-25T10:18:44.508Z,95.63
2018-11-25T10:19:46.784Z,90.00
2018-11-25T10:20:45.715Z,95.63
2018-11-25T10:21:45.088Z,95.63
2018-11-25T10:22:45.137Z,101.25
2018-11-25T10:23:45.338Z,106.88
2018-11-25T10:24:45.516Z,112.50
2018-11-25T10:25:46.576Z,146.25
2018-11-25T10:26:47.894Z,180.00
2018-11-25T10:27:47.026Z,202.50
2018-11-25T10:28:47.454Z,202.50
2018-11-25T10:29:46.893Z,196.88
2018-11-25T10:30:47.021Z,202.50
2018-11-25T10:31:47.943Z,191.25
2018-11-25T10:32:47.445Z,174.38
2018-11-25T10:33:47.584Z,202.50
2018-11-25T10:34:47.929Z,219.38
2018-11-25T10:35:50.222Z,202.50
2018-11-25T10:36:47.417Z,213.75
2018-11-25T10:37:48.044Z,225.00
2018-11-25T10:38:47.812Z,236.25
2018-11-25T10:39:48.036Z,236.25
2018-11-25T10:40:48.506Z,225.00
2018-11-25T10:41:48.383Z,202.50
2018-11-25T10:42:48.493Z,174.38
2018-11-25T10:43:48.801Z,140.63
2018-11-25T10:44:48.789Z,101.25
2018-11-25T10:45:48.926Z,84.38
2018-11-25T10:46:49.214Z,73.13
2018-11-25T10:47:49.246Z,73.13
2018-11-25T10:48:49.654Z,73.13
2018-11-25T10:49:49.620Z,78.75
2018-11-25T10:50:51.271Z,78.75
2018-11-25T10:51:50.401Z,84.38
2018-11-25T10:52:50.166Z,84.38
2018-11-25T10:53:50.348Z,78.75
2018-11-25T10:54:51.487Z,73.13
2018-11-25T10:55:50.751Z,61.88
2018-11-25T10:56:51.007Z,56.25
2018-11-25T10:57:51.148Z,73.13
2018-11-25T10:58:51.402Z,67.50
2018-11-25T10:59:51.611Z,56.25
2018-11-25T11:00:51.599Z,45.00
2018-11-25T11:01:51.822Z,39.38
2018-11-25T11:02:51.982Z,45.00
2018-11-25T11:03:52.153Z,50.63
2018-11-25T11:04:52.371Z,61.88
2018-11-25T11:05:52.528Z,73.13
2018-11-25T11:06:52.708Z,73.13
2018-11-25T11:07:52.868Z,73.13
2018-11-25T11:08:54.228Z,73.13
2018-11-25T11:09:53.286Z,73.13
2018-11-25T11:10:53.408Z,73.13
2018-11-25T11:11:53.527Z,73.13
2018-11-25T11:12:53.733Z,78.75
2018-11-25T11:13:54.067Z,78.75
2018-11-25T11:14:54.049Z,90.00
2018-11-25T11:15:54.214Z,101.25
2018-11-25T11:16:54.429Z,112.50
2018-11-25T11:17:54.617Z,123.75
2018-11-25T11:18:54.813Z,146.25
2018-11-25T11:19:54.981Z,151.88
2018-11-25T11:20:55.234Z,151.88
2018-11-25T11:21:55.601Z,135.00
2018-11-25T11:22:55.551Z,106.88
2018-11-25T11:23:55.721Z,84.38
2018-11-25T11:24:55.916Z,78.75
2018-11-25T11:25:55.993Z,67.50
2018-11-25T11:26:56.174Z,61.88
2018-11-25T11:27:56.342Z,61.88
2018-11-25T11:28:56.514Z,61.88
2018-11-25T11:29:56.673Z,67.50
2018-11-25T11:30:56.869Z,67.50
2018-11-25T11:31:57.097Z,67.50
2018-11-25T11:32:57.220Z,73.13
2018-11-25T11:33:57.391Z,78.75
2018-11-25T11:34:57.580Z,84.38
2018-11-25T11:35:57.714Z,84.38
2018-11-25T11:36:57.886Z,84.38
2018-11-25T11:37:58.033Z,78.75
2018-11-25T11:38:58.203Z,78.75
2018-11-25T11:39:58.370Z,84.38
2018-11-25T11:40:58.580Z,84.38
2018-11-25T11:41:58.729Z,90.00
2018-11-25T11:42:58.938Z,95.63
2018-11-25T11:43:59.166Z,106.88
2018-11-25T11:44:59.231Z,112.50
2018-11-25T11:45:59.397Z,101.25
2018-11-25T11:46:59.563Z,101.25
2018-11-25T11:47:59.758Z,101.25
2018-11-25T11:48:59.919Z,95.63
2018-11-25T11:50:00.090Z,90.00
2018-11-25T11:51:00.255Z,84.38
2018-11-25T11:52:00.421Z,84.38
2018-11-25T11:53:00.592Z,84.38
2018-11-25T11:54:00.968Z,84.38
2018-11-25T11:55:00.974Z,84.38
2018-11-25T11:56:01.146Z,78.75
2018-11-25T11:57:01.303Z,78.75
2018-11-25T11:58:01.466Z,73.13
2018-11-25T11:59:01.629Z,61.88
2018-11-25T12:00:01.804Z,56.25
2018-11-25T12:01:01.970Z,45.00
2018-11-25T12:02:02.152Z,45.00
2018-11-25T12:03:02.335Z,39.38
2018-11-25T12:04:02.440Z,39.38
2018-11-25T12:05:02.559Z,39.38
2018-11-25T12:06:02.724Z,33.75
2018-11-25T12:07:02.901Z,33.75
2018-11-25T12:08:03.161Z,33.75
2018-11-25T12:09:03.179Z,39.38
2018-11-25T12:10:03.354Z,39.38
2018-11-25T12:11:03.520Z,39.38
2018-11-25T12:12:03.678Z,39.38
2018-11-25T12:13:03.837Z,33.75
2018-11-25T12:14:04.001Z,33.75
2018-11-25T12:15:04.163Z,33.75
2018-11-25T12:16:04.331Z,39.38
2018-11-25T12:17:04.491Z,39.38
2018-11-25T12:18:04.670Z,39.38
2018-11-25T12:19:04.875Z,39.38
2018-11-25T12:20:05.005Z,45.00
2018-11-25T12:21:05.183Z,39.38
2018-11-25T12:22:05.351Z,39.38
2018-11-25T12:23:05.529Z,39.38
2018-11-25T12:24:05.753Z,33.75
2018-11-25T12:25:05.819Z,33.75
2018-11-25T12:26:05.985Z,28.13
2018-11-25T12:27:06.171Z,28.13
2018-11-25T12:28:06.317Z,22.50
2018-11-25T12:29:06.476Z,22.50
2018-11-25T12:30:06.648Z,22.50
2018-11-25T12:31:07.128Z,28.13
2018-11-25T12:32:07.080Z,28.13
2018-11-25T12:33:07.431Z,28.13
2018-11-25T12:34:07.538Z,28.13
2018-11-25T12:35:07.720Z,28.13
2018-11-25T12:36:08.039Z,28.13
2018-11-25T12:37:08.084Z,28.13
2018-11-25T12:38:07.909Z,28.13
2018-11-25T12:39:08.228Z,33.75
2018-11-25T12:40:11.166Z,33.75
2018-11-25T12:41:08.448Z,39.38
2018-11-25T12:42:08.552Z,39.38
2018-11-25T12:43:08.722Z,39.38
2018-11-25T12:44:13.655Z,39.38
2018-11-25T12:45:09.138Z,39.38
2018-11-25T12:46:09.314Z,39.38
2018-11-25T12:47:09.493Z,39.38
2018-11-25T12:48:09.701Z,39.38
2018-11-25T12:49:09.856Z,39.38
2018-11-25T12:50:10.024Z,39.38
2018-11-25T12:51:10.190Z,39.38
2018-11-25T12:52:10.374Z,39.38
2018-11-25T12:53:10.588Z,39.38
2018-11-25T12:54:10.900Z,39.38
2018-11-25T12:55:11.031Z,39.38
2018-11-25T12:56:12.144Z,33.75
2018-11-25T12:57:11.408Z,33.75
2018-11-25T12:58:11.327Z,33.75
2018-11-25T12:59:11.491Z,28.13
2018-11-25T13:00:11.659Z,28.13
2018-11-25T13:01:11.852Z,22.50
2018-11-25T13:02:12.044Z,22.50
2018-11-25T13:03:12.221Z,22.50
2018-11-25T13:04:12.419Z,16.88
2018-11-25T13:05:12.475Z,16.88
2018-11-25T13:06:12.645Z,22.50
2018-11-25T13:07:12.821Z,22.50
2018-11-25T13:08:12.995Z,22.50